sensor_id;sensor_type;location;lat;lon;timestamp;P1;durP1;ratioP1;P2;durP2;ratioP2
13487;SDS011;6816;48.506;9.050;2023-02-01T00:00:23;3.30;;;2.60;;
13487;SDS011;6816;48.506;9.050;2023-02-01T00:03:23;3.47;;;2.60;;
13487;SDS011;6816;48.506;9.050;2023-02-01T00:06:24;3.67;;;2.73;;
13487;SDS011;6816;48.506;9.050;2023-02-01T00:09:25;4.13;;;2.40;;
13487;SDS011;6816;48.506;9.050;2023-02-01T00:12:26;3.70;;;2.20;;
13487;SDS011;6816;48.506;9.050;2023-02-01T00:15:26;2.50;;;2.30;;
13487;SDS011;6816;48.506;9.050;2023-02-01T00:18:27;2.80;;;2.10;;
13487;SDS011;6816;48.506;9.050;2023-02-01T00:21:27;3.47;;;1.93;;
13487;SDS011;6816;48.506;9.050;2023-02-01T00:24:29;2.37;;;1.80;;
13487;SDS011;6816;48.506;9.050;2023-02-01T00:27:29;2.60;;;2.00;;
13487;SDS011;6816;48.506;9.050;2023-02-01T00:30:30;1.97;;;1.50;;
13487;SDS011;6816;48.506;9.050;2023-02-01T00:33:31;2.53;;;1.60;;
13487;SDS011;6816;48.506;9.050;2023-02-01T00:36:32;3.33;;;1.63;;
13487;SDS011;6816;48.506;9.050;2023-02-01T00:39:33;2.00;;;1.50;;
13487;SDS011;6816;48.506;9.050;2023-02-01T00:42:34;1.60;;;1.30;;
13487;SDS011;6816;48.506;9.050;2023-02-01T00:45:35;1.73;;;1.40;;
13487;SDS011;6816;48.506;9.050;2023-02-01T00:48:35;2.77;;;1.67;;
13487;SDS011;6816;48.506;9.050;2023-02-01T00:51:36;1.50;;;1.40;;
13487;SDS011;6816;48.506;9.050;2023-02-01T00:54:37;1.67;;;1.37;;
13487;SDS011;6816;48.506;9.050;2023-02-01T00:57:37;1.63;;;1.40;;
13487;SDS011;6816;48.506;9.050;2023-02-01T01:00:38;1.73;;;1.20;;
13487;SDS011;6816;48.506;9.050;2023-02-01T01:03:40;1.50;;;1.30;;
13487;SDS011;6816;48.506;9.050;2023-02-01T01:06:42;1.47;;;1.07;;
13487;SDS011;6816;48.506;9.050;2023-02-01T01:09:43;1.23;;;0.90;;
13487;SDS011;6816;48.506;9.050;2023-02-01T01:12:43;1.27;;;1.03;;
13487;SDS011;6816;48.506;9.050;2023-02-01T01:15:44;1.37;;;1.10;;
13487;SDS011;6816;48.506;9.050;2023-02-01T01:18:45;1.10;;;1.00;;
13487;SDS011;6816;48.506;9.050;2023-02-01T01:21:46;2.17;;;1.40;;
13487;SDS011;6816;48.506;9.050;2023-02-01T01:24:47;0.87;;;0.80;;
13487;SDS011;6816;48.506;9.050;2023-02-01T01:27:47;1.77;;;1.10;;
13487;SDS011;6816;48.506;9.050;2023-02-01T01:30:48;1.00;;;0.80;;
13487;SDS011;6816;48.506;9.050;2023-02-01T01:33:50;0.77;;;0.70;;
13487;SDS011;6816;48.506;9.050;2023-02-01T01:36:52;1.17;;;1.00;;
13487;SDS011;6816;48.506;9.050;2023-02-01T01:39:52;1.00;;;0.77;;
13487;SDS011;6816;48.506;9.050;2023-02-01T01:42:56;0.93;;;0.80;;
13487;SDS011;6816;48.506;9.050;2023-02-01T01:45:57;1.20;;;0.87;;
13487;SDS011;6816;48.506;9.050;2023-02-01T01:49:20;0.93;;;0.80;;
13487;SDS011;6816;48.506;9.050;2023-02-01T01:52:23;1.03;;;0.90;;
13487;SDS011;6816;48.506;9.050;2023-02-01T01:55:25;1.00;;;0.90;;
13487;SDS011;6816;48.506;9.050;2023-02-01T01:58:27;1.00;;;0.90;;
13487;SDS011;6816;48.506;9.050;2023-02-01T02:01:31;1.07;;;0.90;;
13487;SDS011;6816;48.506;9.050;2023-02-01T02:04:33;1.00;;;0.90;;
13487;SDS011;6816;48.506;9.050;2023-02-01T02:07:36;1.50;;;1.10;;
13487;SDS011;6816;48.506;9.050;2023-02-01T02:10:40;1.10;;;1.00;;
13487;SDS011;6816;48.506;9.050;2023-02-01T02:13:59;0.97;;;0.87;;
13487;SDS011;6816;48.506;9.050;2023-02-01T02:17:46;1.23;;;1.13;;
13487;SDS011;6816;48.506;9.050;2023-02-01T02:23:38;1.20;;;1.10;;
13487;SDS011;6816;48.506;9.050;2023-02-01T02:43:22;1.10;;;1.00;;
13487;SDS011;6816;48.506;9.050;2023-02-01T02:46:48;0.93;;;0.83;;
13487;SDS011;6816;48.506;9.050;2023-02-01T02:50:10;0.83;;;0.70;;
13487;SDS011;6816;48.506;9.050;2023-02-01T02:57:45;0.83;;;0.80;;
13487;SDS011;6816;48.506;9.050;2023-02-01T03:01:05;1.03;;;0.80;;
13487;SDS011;6816;48.506;9.050;2023-02-01T03:04:25;1.10;;;0.70;;
13487;SDS011;6816;48.506;9.050;2023-02-01T03:13:58;1.10;;;1.00;;
13487;SDS011;6816;48.506;9.050;2023-02-01T03:17:08;0.87;;;0.83;;
13487;SDS011;6816;48.506;9.050;2023-02-01T03:20:13;1.37;;;0.83;;
13487;SDS011;6816;48.506;9.050;2023-02-01T03:23:15;1.47;;;1.00;;
13487;SDS011;6816;48.506;9.050;2023-02-01T03:26:19;1.17;;;0.97;;
13487;SDS011;6816;48.506;9.050;2023-02-01T03:29:23;1.13;;;1.03;;
13487;SDS011;6816;48.506;9.050;2023-02-01T03:32:29;0.83;;;0.80;;
13487;SDS011;6816;48.506;9.050;2023-02-01T03:35:54;0.90;;;0.90;;
13487;SDS011;6816;48.506;9.050;2023-02-01T03:42:18;1.27;;;1.10;;
13487;SDS011;6816;48.506;9.050;2023-02-01T03:45:28;1.43;;;1.23;;
13487;SDS011;6816;48.506;9.050;2023-02-01T03:48:35;1.50;;;1.37;;
13487;SDS011;6816;48.506;9.050;2023-02-01T03:51:38;1.40;;;1.30;;
13487;SDS011;6816;48.506;9.050;2023-02-01T03:54:40;1.80;;;1.37;;
13487;SDS011;6816;48.506;9.050;2023-02-01T03:57:44;1.30;;;1.20;;
13487;SDS011;6816;48.506;9.050;2023-02-01T04:03:51;1.43;;;1.20;;
13487;SDS011;6816;48.506;9.050;2023-02-01T04:06:52;1.30;;;1.20;;
13487;SDS011;6816;48.506;9.050;2023-02-01T04:09:52;1.83;;;1.33;;
13487;SDS011;6816;48.506;9.050;2023-02-01T04:12:53;1.30;;;1.20;;
13487;SDS011;6816;48.506;9.050;2023-02-01T04:15:54;1.53;;;1.23;;
13487;SDS011;6816;48.506;9.050;2023-02-01T04:18:54;1.60;;;1.10;;
13487;SDS011;6816;48.506;9.050;2023-02-01T04:21:55;1.30;;;1.03;;
13487;SDS011;6816;48.506;9.050;2023-02-01T04:24:55;1.20;;;1.10;;
13487;SDS011;6816;48.506;9.050;2023-02-01T04:27:56;1.17;;;1.07;;
13487;SDS011;6816;48.506;9.050;2023-02-01T04:30:57;1.40;;;1.20;;
13487;SDS011;6816;48.506;9.050;2023-02-01T04:33:57;1.40;;;1.13;;
13487;SDS011;6816;48.506;9.050;2023-02-01T04:36:58;1.33;;;1.07;;
13487;SDS011;6816;48.506;9.050;2023-02-01T04:39:58;1.30;;;1.20;;
13487;SDS011;6816;48.506;9.050;2023-02-01T04:43:00;1.20;;;1.10;;
13487;SDS011;6816;48.506;9.050;2023-02-01T04:46:01;1.87;;;1.40;;
13487;SDS011;6816;48.506;9.050;2023-02-01T04:49:02;1.33;;;1.10;;
13487;SDS011;6816;48.506;9.050;2023-02-01T04:52:03;1.63;;;1.30;;
13487;SDS011;6816;48.506;9.050;2023-02-01T04:55:04;1.60;;;1.30;;
13487;SDS011;6816;48.506;9.050;2023-02-01T04:58:05;1.30;;;1.20;;
13487;SDS011;6816;48.506;9.050;2023-02-01T05:01:05;1.23;;;0.87;;
13487;SDS011;6816;48.506;9.050;2023-02-01T05:04:06;1.60;;;1.10;;
13487;SDS011;6816;48.506;9.050;2023-02-01T05:07:07;1.30;;;1.20;;
13487;SDS011;6816;48.506;9.050;2023-02-01T05:10:08;0.90;;;0.90;;
13487;SDS011;6816;48.506;9.050;2023-02-01T05:13:09;1.90;;;1.00;;
13487;SDS011;6816;48.506;9.050;2023-02-01T05:16:29;1.13;;;1.00;;
13487;SDS011;6816;48.506;9.050;2023-02-01T05:19:30;0.93;;;0.87;;
13487;SDS011;6816;48.506;9.050;2023-02-01T05:22:30;0.90;;;0.90;;
13487;SDS011;6816;48.506;9.050;2023-02-01T05:25:31;1.27;;;1.10;;
13487;SDS011;6816;48.506;9.050;2023-02-01T05:28:31;1.30;;;0.80;;
13487;SDS011;6816;48.506;9.050;2023-02-01T05:31:32;1.23;;;1.13;;
13487;SDS011;6816;48.506;9.050;2023-02-01T05:34:33;1.37;;;0.90;;
13487;SDS011;6816;48.506;9.050;2023-02-01T05:37:33;1.90;;;0.87;;
13487;SDS011;6816;48.506;9.050;2023-02-01T05:40:34;2.50;;;1.00;;
13487;SDS011;6816;48.506;9.050;2023-02-01T05:43:34;1.20;;;0.87;;
13487;SDS011;6816;48.506;9.050;2023-02-01T05:46:35;1.00;;;0.80;;
13487;SDS011;6816;48.506;9.050;2023-02-01T05:49:36;1.53;;;0.80;;
13487;SDS011;6816;48.506;9.050;2023-02-01T05:52:36;1.20;;;0.93;;
13487;SDS011;6816;48.506;9.050;2023-02-01T05:55:37;1.00;;;0.90;;
13487;SDS011;6816;48.506;9.050;2023-02-01T05:58:38;1.10;;;0.80;;
13487;SDS011;6816;48.506;9.050;2023-02-01T06:01:39;0.80;;;0.70;;
13487;SDS011;6816;48.506;9.050;2023-02-01T06:04:39;1.07;;;0.80;;
13487;SDS011;6816;48.506;9.050;2023-02-01T06:07:40;0.70;;;0.70;;
13487;SDS011;6816;48.506;9.050;2023-02-01T06:10:40;1.03;;;0.83;;
13487;SDS011;6816;48.506;9.050;2023-02-01T06:13:41;1.00;;;0.90;;
13487;SDS011;6816;48.506;9.050;2023-02-01T06:16:42;1.57;;;1.00;;
13487;SDS011;6816;48.506;9.050;2023-02-01T06:19:42;0.83;;;0.80;;
13487;SDS011;6816;48.506;9.050;2023-02-01T06:22:44;1.13;;;0.70;;
13487;SDS011;6816;48.506;9.050;2023-02-01T06:25:45;1.00;;;0.83;;
13487;SDS011;6816;48.506;9.050;2023-02-01T06:28:46;1.17;;;0.93;;
13487;SDS011;6816;48.506;9.050;2023-02-01T06:31:46;1.00;;;0.80;;
13487;SDS011;6816;48.506;9.050;2023-02-01T06:34:47;1.10;;;0.90;;
13487;SDS011;6816;48.506;9.050;2023-02-01T06:37:47;1.67;;;0.97;;
13487;SDS011;6816;48.506;9.050;2023-02-01T06:40:52;1.40;;;1.10;;
13487;SDS011;6816;48.506;9.050;2023-02-01T06:43:57;1.33;;;0.90;;
13487;SDS011;6816;48.506;9.050;2023-02-01T06:46:57;1.30;;;1.00;;
13487;SDS011;6816;48.506;9.050;2023-02-01T06:49:58;1.70;;;1.00;;
13487;SDS011;6816;48.506;9.050;2023-02-01T06:52:59;1.37;;;1.27;;
13487;SDS011;6816;48.506;9.050;2023-02-01T06:56:00;1.57;;;0.97;;
13487;SDS011;6816;48.506;9.050;2023-02-01T06:59:06;1.77;;;1.00;;
13487;SDS011;6816;48.506;9.050;2023-02-01T07:02:09;1.00;;;0.90;;
13487;SDS011;6816;48.506;9.050;2023-02-01T07:05:11;1.13;;;0.97;;
13487;SDS011;6816;48.506;9.050;2023-02-01T07:08:11;1.53;;;1.20;;
13487;SDS011;6816;48.506;9.050;2023-02-01T07:11:13;1.23;;;0.90;;
13487;SDS011;6816;48.506;9.050;2023-02-01T07:14:14;1.33;;;1.00;;
13487;SDS011;6816;48.506;9.050;2023-02-01T07:17:15;1.20;;;1.10;;
13487;SDS011;6816;48.506;9.050;2023-02-01T07:20:16;1.30;;;1.07;;
13487;SDS011;6816;48.506;9.050;2023-02-01T07:23:17;1.50;;;1.10;;
13487;SDS011;6816;48.506;9.050;2023-02-01T07:26:17;0.80;;;0.80;;
13487;SDS011;6816;48.506;9.050;2023-02-01T07:29:18;1.70;;;1.13;;
13487;SDS011;6816;48.506;9.050;2023-02-01T07:32:19;2.03;;;1.10;;
13487;SDS011;6816;48.506;9.050;2023-02-01T07:35:20;1.10;;;1.00;;
13487;SDS011;6816;48.506;9.050;2023-02-01T07:38:20;1.70;;;0.97;;
13487;SDS011;6816;48.506;9.050;2023-02-01T07:41:23;1.47;;;0.90;;
13487;SDS011;6816;48.506;9.050;2023-02-01T07:44:24;1.43;;;1.07;;
13487;SDS011;6816;48.506;9.050;2023-02-01T07:47:24;1.20;;;1.00;;
13487;SDS011;6816;48.506;9.050;2023-02-01T07:50:25;0.70;;;0.70;;
13487;SDS011;6816;48.506;9.050;2023-02-01T07:53:26;1.67;;;1.20;;
13487;SDS011;6816;48.506;9.050;2023-02-01T07:56:26;1.83;;;1.20;;
13487;SDS011;6816;48.506;9.050;2023-02-01T07:59:27;1.23;;;1.10;;
13487;SDS011;6816;48.506;9.050;2023-02-01T08:02:28;4.27;;;1.10;;
13487;SDS011;6816;48.506;9.050;2023-02-01T08:05:28;2.07;;;1.00;;
13487;SDS011;6816;48.506;9.050;2023-02-01T08:08:29;2.23;;;1.07;;
13487;SDS011;6816;48.506;9.050;2023-02-01T08:11:31;1.77;;;1.10;;
13487;SDS011;6816;48.506;9.050;2023-02-01T08:14:32;1.50;;;1.27;;
13487;SDS011;6816;48.506;9.050;2023-02-01T08:17:32;1.20;;;1.10;;
13487;SDS011;6816;48.506;9.050;2023-02-01T08:20:33;1.30;;;1.10;;
13487;SDS011;6816;48.506;9.050;2023-02-01T08:23:36;2.53;;;1.00;;
13487;SDS011;6816;48.506;9.050;2023-02-01T08:26:37;1.80;;;1.10;;
13487;SDS011;6816;48.506;9.050;2023-02-01T08:29:38;1.13;;;0.73;;
13487;SDS011;6816;48.506;9.050;2023-02-01T08:32:39;1.10;;;0.87;;
13487;SDS011;6816;48.506;9.050;2023-02-01T08:35:40;0.80;;;0.70;;
13487;SDS011;6816;48.506;9.050;2023-02-01T08:38:40;1.10;;;0.90;;
13487;SDS011;6816;48.506;9.050;2023-02-01T08:41:41;2.33;;;0.90;;
13487;SDS011;6816;48.506;9.050;2023-02-01T08:45:02;2.27;;;1.00;;
13487;SDS011;6816;48.506;9.050;2023-02-01T08:48:04;2.20;;;0.93;;
13487;SDS011;6816;48.506;9.050;2023-02-01T08:51:05;2.43;;;1.30;;
13487;SDS011;6816;48.506;9.050;2023-02-01T08:54:12;1.93;;;1.37;;
13487;SDS011;6816;48.506;9.050;2023-02-01T08:57:12;1.97;;;1.40;;
13487;SDS011;6816;48.506;9.050;2023-02-01T09:00:14;1.80;;;1.50;;
13487;SDS011;6816;48.506;9.050;2023-02-01T09:03:16;3.67;;;1.60;;
13487;SDS011;6816;48.506;9.050;2023-02-01T09:06:17;2.67;;;1.17;;
13487;SDS011;6816;48.506;9.050;2023-02-01T09:09:17;1.87;;;1.00;;
13487;SDS011;6816;48.506;9.050;2023-02-01T09:12:18;3.53;;;1.20;;
13487;SDS011;6816;48.506;9.050;2023-02-01T09:15:18;3.53;;;1.20;;
13487;SDS011;6816;48.506;9.050;2023-02-01T09:18:19;1.10;;;1.00;;
13487;SDS011;6816;48.506;9.050;2023-02-01T09:21:20;2.27;;;1.10;;
13487;SDS011;6816;48.506;9.050;2023-02-01T09:24:21;1.53;;;1.10;;
13487;SDS011;6816;48.506;9.050;2023-02-01T09:27:21;1.47;;;1.07;;
13487;SDS011;6816;48.506;9.050;2023-02-01T09:30:23;1.93;;;1.10;;
13487;SDS011;6816;48.506;9.050;2023-02-01T09:33:24;2.93;;;1.23;;
13487;SDS011;6816;48.506;9.050;2023-02-01T09:36:25;2.00;;;0.90;;
13487;SDS011;6816;48.506;9.050;2023-02-01T09:39:26;3.00;;;1.50;;
13487;SDS011;6816;48.506;9.050;2023-02-01T09:49:32;2.80;;;1.27;;
13487;SDS011;6816;48.506;9.050;2023-02-01T09:52:37;4.50;;;1.77;;
13487;SDS011;6816;48.506;9.050;2023-02-01T09:55:43;2.77;;;1.30;;
13487;SDS011;6816;48.506;9.050;2023-02-01T09:58:51;3.97;;;1.67;;
13487;SDS011;6816;48.506;9.050;2023-02-01T10:02:26;4.00;;;1.60;;
13487;SDS011;6816;48.506;9.050;2023-02-01T10:05:39;4.43;;;1.70;;
13487;SDS011;6816;48.506;9.050;2023-02-01T10:09:04;6.97;;;2.00;;
13487;SDS011;6816;48.506;9.050;2023-02-01T10:18:55;3.30;;;1.20;;
13487;SDS011;6816;48.506;9.050;2023-02-01T10:28:59;5.27;;;1.60;;
13487;SDS011;6816;48.506;9.050;2023-02-01T10:32:02;4.90;;;1.70;;
13487;SDS011;6816;48.506;9.050;2023-02-01T10:38:25;3.57;;;1.57;;
13487;SDS011;6816;48.506;9.050;2023-02-01T10:41:35;3.50;;;1.47;;
13487;SDS011;6816;48.506;9.050;2023-02-01T10:44:40;3.10;;;1.40;;
13487;SDS011;6816;48.506;9.050;2023-02-01T10:47:45;3.37;;;1.50;;
13487;SDS011;6816;48.506;9.050;2023-02-01T10:50:55;3.33;;;1.50;;
13487;SDS011;6816;48.506;9.050;2023-02-01T10:54:11;4.13;;;1.40;;
13487;SDS011;6816;48.506;9.050;2023-02-01T10:57:21;4.73;;;1.50;;
13487;SDS011;6816;48.506;9.050;2023-02-01T11:00:29;3.43;;;1.40;;
13487;SDS011;6816;48.506;9.050;2023-02-01T11:07:16;4.53;;;1.80;;
13487;SDS011;6816;48.506;9.050;2023-02-01T11:10:43;4.83;;;1.60;;
13487;SDS011;6816;48.506;9.050;2023-02-01T11:13:44;3.53;;;1.50;;
13487;SDS011;6816;48.506;9.050;2023-02-01T11:16:54;3.60;;;1.43;;
13487;SDS011;6816;48.506;9.050;2023-02-01T11:20:02;4.73;;;1.80;;
13487;SDS011;6816;48.506;9.050;2023-02-01T11:23:10;4.60;;;1.77;;
13487;SDS011;6816;48.506;9.050;2023-02-01T11:29:23;4.60;;;1.30;;
13487;SDS011;6816;48.506;9.050;2023-02-01T11:32:29;4.13;;;1.63;;
13487;SDS011;6816;48.506;9.050;2023-02-01T11:35:30;3.80;;;1.33;;
13487;SDS011;6816;48.506;9.050;2023-02-01T11:38:33;3.40;;;1.40;;
13487;SDS011;6816;48.506;9.050;2023-02-01T11:41:34;3.50;;;1.10;;
13487;SDS011;6816;48.506;9.050;2023-02-01T11:44:42;3.10;;;1.27;;
13487;SDS011;6816;48.506;9.050;2023-02-01T11:47:45;3.27;;;1.30;;
13487;SDS011;6816;48.506;9.050;2023-02-01T11:50:47;4.93;;;1.70;;
13487;SDS011;6816;48.506;9.050;2023-02-01T11:57:12;4.03;;;1.40;;
13487;SDS011;6816;48.506;9.050;2023-02-01T12:20:16;6.30;;;2.70;;
13487;SDS011;6816;48.506;9.050;2023-02-01T12:30:57;3.90;;;1.40;;
13487;SDS011;6816;48.506;9.050;2023-02-01T12:34:20;4.90;;;1.60;;
13487;SDS011;6816;48.506;9.050;2023-02-01T12:44:02;4.03;;;1.50;;
13487;SDS011;6816;48.506;9.050;2023-02-01T12:47:16;4.57;;;1.50;;
13487;SDS011;6816;48.506;9.050;2023-02-01T12:50:23;4.17;;;1.43;;
13487;SDS011;6816;48.506;9.050;2023-02-01T12:57:00;3.40;;;1.20;;
13487;SDS011;6816;48.506;9.050;2023-02-01T13:07:07;6.63;;;1.70;;
13487;SDS011;6816;48.506;9.050;2023-02-01T13:13:42;3.97;;;1.40;;
13487;SDS011;6816;48.506;9.050;2023-02-01T13:16:54;2.30;;;1.23;;
13487;SDS011;6816;48.506;9.050;2023-02-01T13:20:10;3.83;;;1.40;;
13487;SDS011;6816;48.506;9.050;2023-02-01T13:23:44;4.13;;;1.43;;
13487;SDS011;6816;48.506;9.050;2023-02-01T13:26:48;3.87;;;1.40;;
13487;SDS011;6816;48.506;9.050;2023-02-01T13:33:11;3.60;;;1.57;;
13487;SDS011;6816;48.506;9.050;2023-02-01T13:40:37;6.37;;;1.77;;
13487;SDS011;6816;48.506;9.050;2023-02-01T13:43:35;4.60;;;1.47;;
13487;SDS011;6816;48.506;9.050;2023-02-01T13:46:42;6.83;;;1.63;;
13487;SDS011;6816;48.506;9.050;2023-02-01T13:49:45;5.03;;;1.50;;
13487;SDS011;6816;48.506;9.050;2023-02-01T13:52:51;8.27;;;1.60;;
13487;SDS011;6816;48.506;9.050;2023-02-01T13:56:16;5.30;;;1.70;;
13487;SDS011;6816;48.506;9.050;2023-02-01T14:08:41;6.73;;;1.63;;
13487;SDS011;6816;48.506;9.050;2023-02-01T14:11:50;4.60;;;1.70;;
13487;SDS011;6816;48.506;9.050;2023-02-01T14:14:53;5.60;;;1.50;;
13487;SDS011;6816;48.506;9.050;2023-02-01T14:21:46;2.83;;;1.30;;
13487;SDS011;6816;48.506;9.050;2023-02-01T14:24:56;2.90;;;1.70;;
13487;SDS011;6816;48.506;9.050;2023-02-01T14:27:58;3.60;;;1.60;;
13487;SDS011;6816;48.506;9.050;2023-02-01T14:30:58;3.90;;;1.60;;
13487;SDS011;6816;48.506;9.050;2023-02-01T14:34:01;3.60;;;1.50;;
13487;SDS011;6816;48.506;9.050;2023-02-01T14:40:19;6.30;;;1.47;;
13487;SDS011;6816;48.506;9.050;2023-02-01T14:50:29;6.10;;;2.60;;
13487;SDS011;6816;48.506;9.050;2023-02-01T14:53:40;4.63;;;2.00;;
13487;SDS011;6816;48.506;9.050;2023-02-01T14:56:43;4.73;;;1.47;;
13487;SDS011;6816;48.506;9.050;2023-02-01T14:59:45;2.13;;;1.40;;
13487;SDS011;6816;48.506;9.050;2023-02-01T15:02:46;4.97;;;1.90;;
13487;SDS011;6816;48.506;9.050;2023-02-01T15:05:56;6.10;;;2.50;;
13487;SDS011;6816;48.506;9.050;2023-02-01T15:09:03;4.40;;;1.70;;
13487;SDS011;6816;48.506;9.050;2023-02-01T15:15:41;4.63;;;1.50;;
13487;SDS011;6816;48.506;9.050;2023-02-01T15:18:42;2.60;;;1.27;;
13487;SDS011;6816;48.506;9.050;2023-02-01T15:21:47;6.10;;;1.67;;
13487;SDS011;6816;48.506;9.050;2023-02-01T15:24:53;4.53;;;1.77;;
13487;SDS011;6816;48.506;9.050;2023-02-01T15:27:58;3.10;;;1.50;;
13487;SDS011;6816;48.506;9.050;2023-02-01T15:30:59;5.33;;;1.83;;
13487;SDS011;6816;48.506;9.050;2023-02-01T15:34:02;5.23;;;1.67;;
13487;SDS011;6816;48.506;9.050;2023-02-01T15:37:04;4.40;;;1.30;;
13487;SDS011;6816;48.506;9.050;2023-02-01T15:40:18;6.50;;;1.80;;
13487;SDS011;6816;48.506;9.050;2023-02-01T15:43:21;3.00;;;1.60;;
13487;SDS011;6816;48.506;9.050;2023-02-01T15:46:33;4.93;;;1.80;;
13487;SDS011;6816;48.506;9.050;2023-02-01T15:49:36;6.20;;;1.83;;
13487;SDS011;6816;48.506;9.050;2023-02-01T15:52:39;6.93;;;2.10;;
13487;SDS011;6816;48.506;9.050;2023-02-01T15:55:41;3.07;;;1.50;;
13487;SDS011;6816;48.506;9.050;2023-02-01T15:58:44;6.50;;;1.73;;
13487;SDS011;6816;48.506;9.050;2023-02-01T16:01:49;3.50;;;1.50;;
13487;SDS011;6816;48.506;9.050;2023-02-01T16:04:51;5.40;;;1.80;;
13487;SDS011;6816;48.506;9.050;2023-02-01T16:07:58;5.43;;;1.80;;
13487;SDS011;6816;48.506;9.050;2023-02-01T16:14:07;6.90;;;2.33;;
13487;SDS011;6816;48.506;9.050;2023-02-01T16:17:08;5.73;;;1.93;;
13487;SDS011;6816;48.506;9.050;2023-02-01T16:20:09;3.97;;;1.80;;
13487;SDS011;6816;48.506;9.050;2023-02-01T16:23:11;6.17;;;1.70;;
13487;SDS011;6816;48.506;9.050;2023-02-01T16:26:11;4.13;;;1.50;;
13487;SDS011;6816;48.506;9.050;2023-02-01T16:29:12;5.23;;;1.67;;
13487;SDS011;6816;48.506;9.050;2023-02-01T16:32:17;5.30;;;1.90;;
13487;SDS011;6816;48.506;9.050;2023-02-01T16:35:54;7.30;;;2.37;;
13487;SDS011;6816;48.506;9.050;2023-02-01T16:38:47;6.03;;;1.70;;
13487;SDS011;6816;48.506;9.050;2023-02-01T16:41:49;5.10;;;1.73;;
13487;SDS011;6816;48.506;9.050;2023-02-01T16:44:50;4.27;;;1.53;;
13487;SDS011;6816;48.506;9.050;2023-02-01T16:47:52;4.87;;;1.80;;
13487;SDS011;6816;48.506;9.050;2023-02-01T16:50:56;5.87;;;1.60;;
13487;SDS011;6816;48.506;9.050;2023-02-01T16:53:58;5.83;;;1.90;;
13487;SDS011;6816;48.506;9.050;2023-02-01T16:56:59;4.10;;;1.60;;
13487;SDS011;6816;48.506;9.050;2023-02-01T17:00:00;2.83;;;1.70;;
13487;SDS011;6816;48.506;9.050;2023-02-01T17:03:04;7.17;;;1.93;;
13487;SDS011;6816;48.506;9.050;2023-02-01T17:06:05;5.20;;;1.80;;
13487;SDS011;6816;48.506;9.050;2023-02-01T17:09:08;4.77;;;1.57;;
13487;SDS011;6816;48.506;9.050;2023-02-01T17:12:23;4.80;;;1.93;;
13487;SDS011;6816;48.506;9.050;2023-02-01T17:15:26;6.70;;;2.10;;
13487;SDS011;6816;48.506;9.050;2023-02-01T17:18:31;4.67;;;1.70;;
13487;SDS011;6816;48.506;9.050;2023-02-01T17:21:47;6.07;;;2.10;;
13487;SDS011;6816;48.506;9.050;2023-02-01T17:24:53;6.00;;;1.87;;
13487;SDS011;6816;48.506;9.050;2023-02-01T17:27:54;4.77;;;1.73;;
13487;SDS011;6816;48.506;9.050;2023-02-01T17:30:55;4.40;;;1.97;;
13487;SDS011;6816;48.506;9.050;2023-02-01T17:33:56;3.90;;;1.70;;
13487;SDS011;6816;48.506;9.050;2023-02-01T17:36:56;3.33;;;1.60;;
13487;SDS011;6816;48.506;9.050;2023-02-01T17:39:57;3.13;;;1.67;;
13487;SDS011;6816;48.506;9.050;2023-02-01T17:42:58;5.37;;;2.07;;
13487;SDS011;6816;48.506;9.050;2023-02-01T17:46:21;4.40;;;1.80;;
13487;SDS011;6816;48.506;9.050;2023-02-01T17:49:25;3.60;;;1.90;;
13487;SDS011;6816;48.506;9.050;2023-02-01T17:52:29;3.73;;;2.13;;
13487;SDS011;6816;48.506;9.050;2023-02-01T17:55:31;5.37;;;1.93;;
13487;SDS011;6816;48.506;9.050;2023-02-01T17:58:33;5.03;;;2.30;;
13487;SDS011;6816;48.506;9.050;2023-02-01T18:01:34;4.80;;;2.17;;
13487;SDS011;6816;48.506;9.050;2023-02-01T18:04:34;5.33;;;1.90;;
13487;SDS011;6816;48.506;9.050;2023-02-01T18:07:36;6.63;;;2.10;;
13487;SDS011;6816;48.506;9.050;2023-02-01T18:10:37;6.23;;;2.20;;
13487;SDS011;6816;48.506;9.050;2023-02-01T18:13:37;4.63;;;1.93;;
13487;SDS011;6816;48.506;9.050;2023-02-01T18:16:38;5.33;;;2.43;;
13487;SDS011;6816;48.506;9.050;2023-02-01T18:19:39;5.43;;;2.10;;
13487;SDS011;6816;48.506;9.050;2023-02-01T18:22:40;5.90;;;2.30;;
13487;SDS011;6816;48.506;9.050;2023-02-01T18:25:41;7.93;;;2.70;;
13487;SDS011;6816;48.506;9.050;2023-02-01T18:28:42;6.60;;;2.40;;
13487;SDS011;6816;48.506;9.050;2023-02-01T18:31:44;9.77;;;5.07;;
13487;SDS011;6816;48.506;9.050;2023-02-01T18:34:47;8.30;;;3.10;;
13487;SDS011;6816;48.506;9.050;2023-02-01T18:37:48;5.33;;;2.00;;
13487;SDS011;6816;48.506;9.050;2023-02-01T18:40:51;4.73;;;2.37;;
13487;SDS011;6816;48.506;9.050;2023-02-01T18:43:53;5.47;;;2.17;;
13487;SDS011;6816;48.506;9.050;2023-02-01T18:46:54;5.30;;;2.10;;
13487;SDS011;6816;48.506;9.050;2023-02-01T18:49:54;5.17;;;1.67;;
13487;SDS011;6816;48.506;9.050;2023-02-01T18:52:56;6.87;;;2.40;;
13487;SDS011;6816;48.506;9.050;2023-02-01T18:55:58;5.67;;;1.70;;
13487;SDS011;6816;48.506;9.050;2023-02-01T18:58:59;6.70;;;2.17;;
13487;SDS011;6816;48.506;9.050;2023-02-01T19:01:59;3.77;;;1.90;;
13487;SDS011;6816;48.506;9.050;2023-02-01T19:05:02;8.03;;;2.57;;
13487;SDS011;6816;48.506;9.050;2023-02-01T19:08:03;4.40;;;1.60;;
13487;SDS011;6816;48.506;9.050;2023-02-01T19:11:05;6.97;;;2.33;;
13487;SDS011;6816;48.506;9.050;2023-02-01T19:14:08;5.97;;;2.03;;
13487;SDS011;6816;48.506;9.050;2023-02-01T19:17:09;3.77;;;1.53;;
13487;SDS011;6816;48.506;9.050;2023-02-01T19:20:10;2.60;;;1.40;;
13487;SDS011;6816;48.506;9.050;2023-02-01T19:23:13;3.03;;;1.33;;
13487;SDS011;6816;48.506;9.050;2023-02-01T19:26:14;3.00;;;1.43;;
13487;SDS011;6816;48.506;9.050;2023-02-01T19:29:16;2.57;;;1.00;;
13487;SDS011;6816;48.506;9.050;2023-02-01T19:32:17;5.37;;;1.73;;
13487;SDS011;6816;48.506;9.050;2023-02-01T19:35:19;4.20;;;1.40;;
13487;SDS011;6816;48.506;9.050;2023-02-01T19:38:20;3.70;;;1.53;;
13487;SDS011;6816;48.506;9.050;2023-02-01T19:41:21;3.57;;;1.83;;
13487;SDS011;6816;48.506;9.050;2023-02-01T19:44:21;3.50;;;1.57;;
13487;SDS011;6816;48.506;9.050;2023-02-01T19:47:22;4.23;;;1.53;;
13487;SDS011;6816;48.506;9.050;2023-02-01T19:50:23;6.47;;;1.77;;
13487;SDS011;6816;48.506;9.050;2023-02-01T19:53:23;4.17;;;2.00;;
13487;SDS011;6816;48.506;9.050;2023-02-01T19:56:26;4.30;;;1.47;;
13487;SDS011;6816;48.506;9.050;2023-02-01T19:59:27;6.03;;;1.83;;
13487;SDS011;6816;48.506;9.050;2023-02-01T20:02:28;6.23;;;2.07;;
13487;SDS011;6816;48.506;9.050;2023-02-01T20:05:28;3.07;;;1.20;;
13487;SDS011;6816;48.506;9.050;2023-02-01T20:08:29;4.67;;;1.50;;
13487;SDS011;6816;48.506;9.050;2023-02-01T20:11:29;4.17;;;1.73;;
13487;SDS011;6816;48.506;9.050;2023-02-01T20:14:31;5.47;;;1.80;;
13487;SDS011;6816;48.506;9.050;2023-02-01T20:17:31;7.30;;;1.70;;
13487;SDS011;6816;48.506;9.050;2023-02-01T20:20:34;6.37;;;1.57;;
13487;SDS011;6816;48.506;9.050;2023-02-01T20:23:35;3.73;;;1.30;;
13487;SDS011;6816;48.506;9.050;2023-02-01T20:26:36;4.53;;;1.33;;
13487;SDS011;6816;48.506;9.050;2023-02-01T20:29:37;3.13;;;1.67;;
13487;SDS011;6816;48.506;9.050;2023-02-01T20:32:40;4.37;;;1.90;;
13487;SDS011;6816;48.506;9.050;2023-02-01T20:35:43;4.27;;;1.67;;
13487;SDS011;6816;48.506;9.050;2023-02-01T20:38:44;4.60;;;1.57;;
13487;SDS011;6816;48.506;9.050;2023-02-01T20:41:45;4.77;;;1.80;;
13487;SDS011;6816;48.506;9.050;2023-02-01T20:44:46;5.73;;;1.53;;
13487;SDS011;6816;48.506;9.050;2023-02-01T20:47:49;5.20;;;1.40;;
13487;SDS011;6816;48.506;9.050;2023-02-01T20:50:54;3.60;;;1.27;;
13487;SDS011;6816;48.506;9.050;2023-02-01T20:53:55;2.90;;;1.27;;
13487;SDS011;6816;48.506;9.050;2023-02-01T20:56:56;4.27;;;1.40;;
13487;SDS011;6816;48.506;9.050;2023-02-01T20:59:57;6.70;;;1.63;;
13487;SDS011;6816;48.506;9.050;2023-02-01T21:02:58;3.40;;;1.70;;
13487;SDS011;6816;48.506;9.050;2023-02-01T21:05:59;4.77;;;1.87;;
13487;SDS011;6816;48.506;9.050;2023-02-01T21:09:00;4.40;;;1.30;;
13487;SDS011;6816;48.506;9.050;2023-02-01T21:12:01;2.83;;;1.33;;
13487;SDS011;6816;48.506;9.050;2023-02-01T21:15:02;4.33;;;1.70;;
13487;SDS011;6816;48.506;9.050;2023-02-01T21:18:04;5.13;;;1.77;;